Time;durP1;ratioP1;P1;durP2;ratioP2;P2;SDS_P1;SDS_P2;PMS_P1;PMS_P2;Temp;Humidity;BMP_temperature;BMP_pressure;BME280_temperature;BME280_humidity;BME280_pressure;Samples;Min_cycle;Max_cycle;Signal;HPM_P1;HPM_P2
2022/11/30 00:02:02;;;;;;;5.03;3.67;;;;;;;;;;5037048;28;20217;-88
2022/11/30 00:04:30;;;;;;;6.10;4.55;;;;;;;;;;5036349;28;20198;-88
2022/11/30 00:06:57;;;;;;;4.00;3.60;;;;;;;;;;5036716;28;20651;-88
2022/11/30 00:09:25;;;;;;;3.60;3.28;;;;;;;;;;5036045;28;20321;-88
2022/11/30 00:11:53;;;;;;;4.70;4.22;;;;;;;;;;5035951;28;20303;-88
2022/11/30 00:14:20;;;;;;;3.50;3.20;;;;;;;;;;5036720;28;20198;-88
2022/11/30 00:16:48;;;;;;;3.95;3.55;;;;;;;;;;5036245;28;20336;-88
2022/11/30 00:19:17;;;;;;;4.03;3.70;;;;;;;;;;5035924;28;20301;-88
2022/11/30 00:21:44;;;;;;;3.67;3.28;;;;;;;;;;5036509;28;20199;-88
2022/11/30 00:24:34;;;;;;;3.63;3.33;;;;;;;;;;5036396;28;20311;-88
2022/11/30 00:27:01;;;;;;;3.97;3.60;;;;;;;;;;5036323;28;20234;-88
2022/11/30 00:29:29;;;;;;;4.22;3.30;;;;;;;;;;5036127;28;20202;-88
2022/11/30 00:31:57;;;;;;;3.83;3.20;;;;;;;;;;5036342;28;20233;-88
2022/11/30 00:34:26;;;;;;;3.22;2.92;;;;;;;;;;5035685;28;20210;-88
2022/11/30 00:36:53;;;;;;;4.80;4.35;;;;;;;;;;5036133;28;20226;-88
2022/11/30 00:39:21;;;;;;;6.03;5.28;;;;;;;;;;5036017;28;20293;-89
2022/11/30 00:41:49;;;;;;;3.92;3.53;;;;;;;;;;5036179;28;20645;-88
2022/11/30 00:44:17;;;;;;;3.90;3.40;;;;;;;;;;5036171;28;20241;-88
2022/11/30 00:46:44;;;;;;;3.40;3.10;;;;;;;;;;5036204;28;20268;-88
2022/11/30 00:49:12;;;;;;;4.07;3.15;;;;;;;;;;5036022;28;20292;-88
2022/11/30 00:51:41;;;;;;;3.00;2.80;;;;;;;;;;5035409;28;20291;-88
2022/11/30 00:54:08;;;;;;;4.20;3.60;;;;;;;;;;5035710;28;20347;-88
2022/11/30 00:56:47;;;;;;;3.42;3.05;;;;;;;;;;5035745;28;20301;-89
2022/11/30 00:59:14;;;;;;;3.55;3.22;;;;;;;;;;5035597;28;20308;-88
2022/11/30 01:01:42;;;;;;;3.25;2.95;;;;;;;;;;5035955;28;20293;-88
2022/11/30 01:04:10;;;;;;;4.03;3.72;;;;;;;;;;5035281;28;20237;-89
2022/11/30 01:06:39;;;;;;;3.67;3.38;;;;;;;;;;5034327;28;20206;-89
2022/11/30 01:09:08;;;;;;;2.85;2.65;;;;;;;;;;5035352;28;20451;-89
2022/11/30 01:11:35;;;;;;;4.30;3.90;;;;;;;;;;5035563;28;20207;-89
2022/11/30 01:14:16;;;;;;;5.10;4.55;;;;;;;;;;5035548;28;20257;-89
2022/11/30 01:16:43;;;;;;;4.97;4.47;;;;;;;;;;5035385;28;20320;-89
2022/11/30 01:19:11;;;;;;;3.50;3.20;;;;;;;;;;5035355;28;20222;-89
2022/11/30 01:21:40;;;;;;;3.45;3.15;;;;;;;;;;5035557;28;20280;-89
2022/11/30 01:24:36;;;;;;;3.22;2.92;;;;;;;;;;5035240;28;20253;-89
2022/11/30 01:27:32;;;;;;;3.45;3.15;;;;;;;;;;5035419;28;20267;-89
2022/11/30 01:30:55;;;;;;;2.90;2.60;;;;;;;;;;5035162;28;20225;-89
2022/11/30 01:33:23;;;;;;;3.63;3.33;;;;;;;;;;5035178;28;20293;-89
2022/11/30 01:36:00;;;;;;;2.80;2.60;;;;;;;;;;5034367;28;20297;-89
2022/11/30 01:38:33;;;;;;;5.72;3.25;;;;;;;;;;5034918;28;20379;-89
2022/11/30 01:41:00;;;;;;;4.63;3.58;;;;;;;;;;5035021;28;20194;-89
2022/11/30 01:43:42;;;;;;;4.25;3.08;;;;;;;;;;5034898;28;20272;-89
2022/11/30 01:46:35;;;;;;;3.97;3.63;;;;;;;;;;5034540;28;20187;-88
2022/11/30 01:49:12;;;;;;;4.97;2.67;;;;;;;;;;5027459;28;20277;-89
2022/11/30 01:51:42;;;;;;;3.22;2.90;;;;;;;;;;5014894;28;20191;-89
2022/11/30 01:54:14;;;;;;;3.15;2.85;;;;;;;;;;5015160;28;20662;-88
2022/11/30 01:56:45;;;;;;;3.80;3.45;;;;;;;;;;5014877;28;20274;-89
2022/11/30 01:59:12;;;;;;;5.57;4.05;;;;;;;;;;5014519;28;20322;-88
2022/11/30 02:01:40;;;;;;;3.47;3.17;;;;;;;;;;5014804;28;20241;-89
2022/11/30 02:04:13;;;;;;;4.03;3.67;;;;;;;;;;5014784;28;20242;-89
2022/11/30 02:06:41;;;;;;;4.07;3.67;;;;;;;;;;5014724;28;20656;-89
2022/11/30 02:09:11;;;;;;;4.20;3.42;;;;;;;;;;5013987;28;20223;-88
2022/11/30 02:11:38;;;;;;;3.60;3.30;;;;;;;;;;5014644;28;20297;-89
2022/11/30 02:14:29;;;;;;;3.63;3.30;;;;;;;;;;5013697;28;20297;-88
2022/11/30 02:17:07;;;;;;;3.90;3.55;;;;;;;;;;5013991;28;20226;-89
2022/11/30 02:20:05;;;;;;;3.92;3.53;;;;;;;;;;5025832;28;20301;-88
2022/11/30 02:22:50;;;;;;;8.30;5.47;;;;;;;;;;5033855;28;20186;-88
2022/11/30 02:25:26;;;;;;;7.53;5.97;;;;;;;;;;5034160;28;20588;-89
2022/11/30 02:28:15;;;;;;;8.63;5.55;;;;;;;;;;5033528;28;20300;-88
2022/11/30 02:30:46;;;;;;;6.50;5.25;;;;;;;;;;5033857;28;20293;-89
2022/11/30 02:33:16;;;;;;;6.50;4.88;;;;;;;;;;5033918;28;20755;-89
2022/11/30 02:35:49;;;;;;;6.88;5.20;;;;;;;;;;5034234;28;20719;-89
2022/11/30 02:38:20;;;;;;;5.18;4.68;;;;;;;;;;5033613;28;20317;-89
2022/11/30 02:40:48;;;;;;;7.07;5.15;;;;;;;;;;5033666;28;20182;-89
2022/11/30 02:43:16;;;;;;;6.20;5.28;;;;;;;;;;5034286;28;20360;-89
2022/11/30 02:45:48;;;;;;;5.70;3.97;;;;;;;;;;5033380;28;20205;-89
2022/11/30 02:48:20;;;;;;;4.85;4.40;;;;;;;;;;5033230;28;20306;-89
2022/11/30 02:50:51;;;;;;;3.83;3.53;;;;;;;;;;5033282;28;20297;-89
2022/11/30 02:53:18;;;;;;;4.72;3.67;;;;;;;;;;5033754;28;20233;-89
2022/11/30 02:56:06;;;;;;;3.60;3.30;;;;;;;;;;5033513;28;20256;-89
2022/11/30 02:58:56;;;;;;;3.25;2.95;;;;;;;;;;5047021;28;20589;-89
2022/11/30 03:01:25;;;;;;;3.60;3.17;;;;;;;;;;5053436;28;20293;-88
2022/11/30 03:03:53;;;;;;;3.38;3.05;;;;;;;;;;5053338;28;20193;-89
2022/11/30 03:06:21;;;;;;;5.43;3.83;;;;;;;;;;5053369;28;20339;-88
2022/11/30 03:08:48;;;;;;;3.78;3.40;;;;;;;;;;5052972;28;20257;-89
2022/11/30 03:11:16;;;;;;;2.47;2.28;;;;;;;;;;5053281;28;20232;-89
2022/11/30 03:13:43;;;;;;;3.13;2.83;;;;;;;;;;5053235;28;20284;-89
2022/11/30 03:16:13;;;;;;;1.88;1.70;;;;;;;;;;5052944;28;20297;-88
2022/11/30 03:18:42;;;;;;;2.20;1.98;;;;;;;;;;5048938;28;20264;-89
2022/11/30 03:21:11;;;;;;;3.50;2.50;;;;;;;;;;5033152;28;20198;-89
2022/11/30 03:23:40;;;;;;;3.50;3.17;;;;;;;;;;5033138;28;20233;-89
2022/11/30 03:26:09;;;;;;;2.92;2.63;;;;;;;;;;5032875;28;20311;-89
2022/11/30 03:28:37;;;;;;;3.60;3.25;;;;;;;;;;5032142;28;20214;-89
2022/11/30 03:31:05;;;;;;;3.22;2.90;;;;;;;;;;5033160;28;20710;-89
2022/11/30 03:33:32;;;;;;;3.70;3.30;;;;;;;;;;5032852;28;20318;-89
2022/11/30 03:36:03;;;;;;;3.03;2.72;;;;;;;;;;5032552;28;20297;-89
2022/11/30 03:38:31;;;;;;;4.22;3.55;;;;;;;;;;5032599;28;20308;-88
2022/11/30 03:41:03;;;;;;;4.30;3.10;;;;;;;;;;5032953;28;20233;-89
2022/11/30 03:43:31;;;;;;;4.95;4.45;;;;;;;;;;5032941;28;20245;-89
2022/11/30 03:45:59;;;;;;;4.78;4.20;;;;;;;;;;5032792;28;20625;-89
2022/11/30 03:48:26;;;;;;;5.05;4.55;;;;;;;;;;5032674;28;20227;-90
2022/11/30 03:51:53;;;;;;;5.25;4.75;;;;;;;;;;5032578;28;20293;-89
2022/11/30 03:54:22;;;;;;;4.60;4.20;;;;;;;;;;5032900;28;20285;-88
2022/11/30 03:56:49;;;;;;;6.82;5.90;;;;;;;;;;5032818;28;20292;-89
2022/11/30 03:59:17;;;;;;;7.85;6.35;;;;;;;;;;5032335;28;20226;-89
2022/11/30 04:01:44;;;;;;;8.23;5.90;;;;;;;;;;5032654;28;20286;-89
2022/11/30 04:04:12;;;;;;;6.30;5.35;;;;;;;;;;5032562;28;20256;-88
2022/11/30 04:06:40;;;;;;;7.40;5.82;;;;;;;;;;5032904;28;20341;-88
2022/11/30 04:09:08;;;;;;;8.02;6.10;;;;;;;;;;5032498;28;20341;-89
2022/11/30 04:11:37;;;;;;;8.23;6.72;;;;;;;;;;5032562;28;20225;-89
2022/11/30 04:14:05;;;;;;;8.98;6.40;;;;;;;;;;5032711;28;20747;-88
2022/11/30 04:16:32;;;;;;;8.80;7.20;;;;;;;;;;5032484;28;20293;-89
2022/11/30 04:22:47;;;;;;;9.50;7.22;;;;;;;;;;5032439;28;20240;-89
2022/11/30 04:25:14;;;;;;;8.88;6.70;;;;;;;;;;5032493;28;20356;-89
2022/11/30 04:27:46;;;;;;;9.98;7.22;;;;;;;;;;5032435;28;20317;-89
2022/11/30 04:30:15;;;;;;;11.93;7.40;;;;;;;;;;5032412;28;20190;-88
2022/11/30 04:32:42;;;;;;;9.80;7.75;;;;;;;;;;5032054;28;20295;-89
2022/11/30 04:35:11;;;;;;;10.02;7.30;;;;;;;;;;5032161;28;20748;-89
2022/11/30 04:37:38;;;;;;;12.48;8.15;;;;;;;;;;5032756;28;20218;-86
2022/11/30 04:40:08;;;;;;;12.60;8.77;;;;;;;;;;5032058;28;20268;-86
2022/11/30 04:42:35;;;;;;;9.68;7.65;;;;;;;;;;5035628;28;20202;-87
2022/11/30 04:45:05;;;;;;;11.45;8.82;;;;;;;;;;5035313;28;20303;-87
2022/11/30 04:47:32;;;;;;;12.23;8.63;;;;;;;;;;5035558;28;20264;-87
2022/11/30 04:50:08;;;;;;;14.18;8.82;;;;;;;;;;5035556;28;20285;-87
2022/11/30 04:52:36;;;;;;;13.30;9.82;;;;;;;;;;5035280;28;20284;-87
2022/11/30 04:55:04;;;;;;;12.43;8.18;;;;;;;;;;5035789;28;20300;-87
2022/11/30 04:57:31;;;;;;;15.88;9.68;;;;;;;;;;5035363;28;20268;-87
2022/11/30 04:59:59;;;;;;;13.52;9.43;;;;;;;;;;5035298;28;20309;-87
2022/11/30 05:02:30;;;;;;;14.70;9.35;;;;;;;;;;5035363;28;20629;-86
2022/11/30 05:04:57;;;;;;;12.93;9.68;;;;;;;;;;5035035;28;20202;-87
2022/11/30 05:07:25;;;;;;;15.60;10.15;;;;;;;;;;5035583;28;20254;-86
2022/11/30 05:09:52;;;;;;;14.55;10.07;;;;;;;;;;5034589;28;20241;-87
2022/11/30 05:12:20;;;;;;;13.43;10.05;;;;;;;;;;5035110;28;20578;-86
2022/11/30 05:14:47;;;;;;;14.15;9.85;;;;;;;;;;5035254;28;20524;-86
2022/11/30 05:17:15;;;;;;;15.70;10.20;;;;;;;;;;5035202;28;20290;-87
2022/11/30 05:19:44;;;;;;;18.77;9.30;;;;;;;;;;5035061;28;20298;-86
2022/11/30 05:22:49;;;;;;;15.30;10.93;;;;;;;;;;5035145;28;20261;-87
2022/11/30 05:25:16;;;;;;;12.65;9.55;;;;;;;;;;5035441;28;20341;-86
2022/11/30 05:27:44;;;;;;;15.75;9.48;;;;;;;;;;5034640;28;20222;-87
2022/11/30 05:30:13;;;;;;;13.73;9.27;;;;;;;;;;5034900;28;20229;-86
2022/11/30 05:32:40;;;;;;;15.18;10.27;;;;;;;;;;5034802;28;20234;-86
2022/11/30 05:35:10;;;;;;;15.15;10.73;;;;;;;;;;5035071;28;20266;-86
2022/11/30 05:37:37;;;;;;;14.20;10.68;;;;;;;;;;5034411;28;20721;-86
2022/11/30 05:40:07;;;;;;;16.85;11.50;;;;;;;;;;5034755;28;20288;-87
2022/11/30 05:42:34;;;;;;;13.52;10.07;;;;;;;;;;5034889;28;20710;-86
2022/11/30 05:45:02;;;;;;;14.27;10.45;;;;;;;;;;5034581;28;20298;-87
2022/11/30 05:47:29;;;;;;;13.88;10.15;;;;;;;;;;5034795;28;20309;-87
2022/11/30 05:49:57;;;;;;;13.80;10.27;;;;;;;;;;5034530;28;20226;-86
2022/11/30 05:52:25;;;;;;;13.65;10.65;;;;;;;;;;5034553;28;20767;-86
2022/11/30 05:54:53;;;;;;;12.70;9.50;;;;;;;;;;5034322;28;20289;-86
2022/11/30 05:57:20;;;;;;;12.85;9.82;;;;;;;;;;5034944;28;20268;-87
2022/11/30 05:59:48;;;;;;;15.10;11.07;;;;;;;;;;5034289;28;20722;-87
2022/11/30 06:02:15;;;;;;;13.48;9.80;;;;;;;;;;5034508;28;20202;-88
2022/11/30 06:05:08;;;;;;;14.63;10.13;;;;;;;;;;5039967;28;20230;-85
2022/11/30 06:07:36;;;;;;;12.77;8.82;;;;;;;;;;5034087;28;20218;-86
2022/11/30 06:10:05;;;;;;;10.07;7.78;;;;;;;;;;5034861;28;20229;-85
2022/11/30 06:12:33;;;;;;;8.75;7.30;;;;;;;;;;5034971;28;20305;-85
2022/11/30 06:15:00;;;;;;;13.25;7.95;;;;;;;;;;5034541;28;20262;-85
2022/11/30 06:17:28;;;;;;;9.57;8.43;;;;;;;;;;5034288;28;20751;-85
2022/11/30 06:19:55;;;;;;;9.25;7.53;;;;;;;;;;5036547;28;20313;-85
2022/11/30 06:22:22;;;;;;;10.65;8.13;;;;;;;;;;5034861;28;20624;-83
2022/11/30 06:24:51;;;;;;;8.13;6.65;;;;;;;;;;5034548;28;20209;-85
2022/11/30 06:27:19;;;;;;;9.55;7.72;;;;;;;;;;5034586;28;20313;-84
2022/11/30 06:29:47;;;;;;;9.82;7.68;;;;;;;;;;5034788;28;20289;-86
2022/11/30 06:32:15;;;;;;;11.63;8.95;;;;;;;;;;5034591;28;20224;-86
2022/11/30 06:34:42;;;;;;;11.32;8.88;;;;;;;;;;5034669;28;20210;-85
2022/11/30 06:37:10;;;;;;;11.63;8.70;;;;;;;;;;5034470;28;20282;-84
2022/11/30 06:39:37;;;;;;;10.45;7.82;;;;;;;;;;5034734;28;20281;-83
2022/11/30 06:42:06;;;;;;;10.63;8.05;;;;;;;;;;5033702;28;20317;-84
2022/11/30 06:44:33;;;;;;;9.00;7.68;;;;;;;;;;5034457;28;20652;-83
2022/11/30 06:47:01;;;;;;;9.43;7.65;;;;;;;;;;5033810;28;20730;-84
2022/11/30 06:49:28;;;;;;;10.02;8.18;;;;;;;;;;5034299;28;20206;-84
2022/11/30 06:51:56;;;;;;;12.00;8.90;;;;;;;;;;5035039;28;20289;-86
2022/11/30 06:54:23;;;;;;;9.68;7.57;;;;;;;;;;5035057;28;20233;-84
2022/11/30 06:56:51;;;;;;;10.02;7.78;;;;;;;;;;5033799;28;20731;-86
2022/11/30 06:59:20;;;;;;;10.88;8.32;;;;;;;;;;5034312;28;20717;-85
2022/11/30 07:01:47;;;;;;;13.20;10.30;;;;;;;;;;5033803;28;20317;-84
2022/11/30 07:04:16;;;;;;;17.15;9.60;;;;;;;;;;5033409;28;20230;-84
2022/11/30 07:06:43;;;;;;;13.50;10.52;;;;;;;;;;5022800;28;20314;-85
2022/11/30 07:09:12;;;;;;;15.32;10.65;;;;;;;;;;5013605;28;20365;-86
2022/11/30 07:11:39;;;;;;;11.85;9.48;;;;;;;;;;5013579;28;20293;-85
2022/11/30 07:14:07;;;;;;;14.55;10.00;;;;;;;;;;5014725;28;20577;-86
2022/11/30 07:16:36;;;;;;;12.10;9.07;;;;;;;;;;5014664;28;20226;-86
2022/11/30 07:19:03;;;;;;;13.02;8.85;;;;;;;;;;5013263;28;20317;-86
2022/11/30 07:21:31;;;;;;;13.57;8.95;;;;;;;;;;5014225;28;20732;-88
2022/11/30 07:26:46;;;;;;;11.57;8.93;;;;;;;;;;5016895;28;20186;-88
2022/11/30 07:29:14;;;;;;;11.43;9.40;;;;;;;;;;5014392;28;20245;-86
2022/11/30 07:31:43;;;;;;;8.75;7.57;;;;;;;;;;5014219;28;20328;-87
2022/11/30 07:34:11;;;;;;;12.93;10.38;;;;;;;;;;5014244;28;20289;-87
2022/11/30 07:36:39;;;;;;;13.85;10.10;;;;;;;;;;5015602;28;20577;-86
2022/11/30 07:39:07;;;;;;;14.23;11.05;;;;;;;;;;5014739;28;20249;-86
2022/11/30 07:41:34;;;;;;;11.65;9.45;;;;;;;;;;5015658;28;20223;-86
2022/11/30 07:44:04;;;;;;;12.52;9.30;;;;;;;;;;5014483;28;20239;-86
2022/11/30 07:46:34;;;;;;;11.20;9.32;;;;;;;;;;5012937;28;20199;-88
2022/11/30 07:49:03;;;;;;;12.55;9.18;;;;;;;;;;5015019;28;20230;-86
2022/11/30 07:51:31;;;;;;;12.77;9.73;;;;;;;;;;5012775;28;20195;-88
2022/11/30 07:53:59;;;;;;;11.77;9.05;;;;;;;;;;5013113;28;20285;-84
2022/11/30 07:56:28;;;;;;;13.48;10.50;;;;;;;;;;5013217;28;20238;-86
2022/11/30 07:58:58;;;;;;;12.82;9.70;;;;;;;;;;5013364;28;20786;-85
2022/11/30 08:01:28;;;;;;;12.10;8.95;;;;;;;;;;5046633;28;20360;-87
2022/11/30 08:03:57;;;;;;;13.15;10.77;;;;;;;;;;5053531;28;20213;-85
2022/11/30 08:06:27;;;;;;;11.65;8.70;;;;;;;;;;5053550;28;20289;-83
2022/11/30 08:08:58;;;;;;;10.07;8.23;;;;;;;;;;5053590;28;20312;-85
2022/11/30 08:11:27;;;;;;;14.93;10.43;;;;;;;;;;5053570;28;20197;-85
2022/11/30 08:13:55;;;;;;;11.90;9.20;;;;;;;;;;5052953;28;20293;-86
2022/11/30 08:16:25;;;;;;;12.80;10.07;;;;;;;;;;5056395;28;20209;-87
2022/11/30 08:18:53;;;;;;;11.52;9.95;;;;;;;;;;5050353;28;20323;-85
2022/11/30 08:21:21;;;;;;;13.45;9.63;;;;;;;;;;5036504;28;20225;-86
2022/11/30 08:23:52;;;;;;;12.93;10.02;;;;;;;;;;5036697;28;20202;-87
2022/11/30 08:26:22;;;;;;;11.57;9.40;;;;;;;;;;5036484;28;20648;-87
2022/11/30 08:28:51;;;;;;;13.82;9.88;;;;;;;;;;5035968;28;20228;-86
2022/11/30 08:31:21;;;;;;;12.90;9.85;;;;;;;;;;5036146;28;20289;-84
2022/11/30 08:33:49;;;;;;;11.40;8.98;;;;;;;;;;5038213;28;20285;-87
2022/11/30 08:36:18;;;;;;;14.50;10.48;;;;;;;;;;5045241;28;20230;-87
2022/11/30 08:38:47;;;;;;;12.52;10.25;;;;;;;;;;5042585;28;20311;-86
2022/11/30 08:41:18;;;;;;;14.02;9.80;;;;;;;;;;5040746;28;20313;-87
2022/11/30 08:43:46;;;;;;;13.65;9.93;;;;;;;;;;5040713;28;20202;-87
2022/11/30 08:46:16;;;;;;;12.02;9.85;;;;;;;;;;5038475;28;20229;-85
2022/11/30 08:48:43;;;;;;;12.00;9.85;;;;;;;;;;5038953;28;20272;-87
2022/11/30 08:51:13;;;;;;;13.00;9.15;;;;;;;;;;5037194;28;20245;-87
2022/11/30 08:53:41;;;;;;;14.18;9.73;;;;;;;;;;5036609;28;20202;-89
2022/11/30 08:56:12;;;;;;;11.35;9.70;;;;;;;;;;5035840;28;20297;-89
2022/11/30 08:58:42;;;;;;;12.85;8.27;;;;;;;;;;5037331;28;20257;-86
2022/11/30 09:01:12;;;;;;;12.38;9.65;;;;;;;;;;5042358;28;20229;-86
2022/11/30 09:03:41;;;;;;;12.70;9.70;;;;;;;;;;5039693;28;20185;-87
2022/11/30 09:06:12;;;;;;;13.20;9.73;;;;;;;;;;5038355;28;20324;-86
2022/11/30 09:08:40;;;;;;;11.50;8.57;;;;;;;;;;5036630;28;20249;-86
2022/11/30 09:11:09;;;;;;;10.13;8.18;;;;;;;;;;5036504;28;20297;-84
2022/11/30 09:13:37;;;;;;;11.93;8.48;;;;;;;;;;5037440;28;20297;-85
2022/11/30 09:16:07;;;;;;;8.88;7.97;;;;;;;;;;5039393;28;20206;-84
2022/11/30 09:18:35;;;;;;;9.23;8.00;;;;;;;;;;5040020;28;20257;-84
2022/11/30 09:21:03;;;;;;;10.13;7.78;;;;;;;;;;5038728;28;20334;-86
2022/11/30 09:23:31;;;;;;;10.85;8.57;;;;;;;;;;5036151;28;20364;-86
2022/11/30 09:26:00;;;;;;;10.20;8.05;;;;;;;;;;5036247;28;20711;-85
2022/11/30 09:28:29;;;;;;;11.80;10.55;;;;;;;;;;5036117;28;20337;-86
2022/11/30 09:31:02;;;;;;;11.82;9.52;;;;;;;;;;5036203;28;20243;-86
2022/11/30 09:33:31;;;;;;;12.05;8.68;;;;;;;;;;5035211;28;20211;-86
2022/11/30 09:36:00;;;;;;;9.10;8.13;;;;;;;;;;5032706;28;20706;-85
2022/11/30 09:38:28;;;;;;;11.35;8.88;;;;;;;;;;5017339;28;20283;-86
2022/11/30 09:40:57;;;;;;;10.85;8.30;;;;;;;;;;5017078;28;20214;-86
2022/11/30 09:43:36;;;;;;;11.48;7.90;;;;;;;;;;5015977;28;20317;-88
2022/11/30 09:46:07;;;;;;;10.05;7.93;;;;;;;;;;5014396;28;20659;-88
2022/11/30 09:48:51;;;;;;;9.48;8.30;;;;;;;;;;5014426;28;20238;-88
2022/11/30 09:51:23;;;;;;;10.23;8.98;;;;;;;;;;5015360;28;20198;-87
2022/11/30 09:53:56;;;;;;;10.57;8.20;;;;;;;;;;5015303;28;20203;-87
2022/11/30 09:56:28;;;;;;;10.95;8.13;;;;;;;;;;5014429;28;20269;-87
2022/11/30 09:58:58;;;;;;;9.20;7.68;;;;;;;;;;5015277;28;20235;-84
2022/11/30 10:01:26;;;;;;;7.53;6.40;;;;;;;;;;5015796;28;20222;-87
2022/11/30 10:03:57;;;;;;;9.13;7.32;;;;;;;;;;5015240;28;20222;-88
2022/11/30 10:06:29;;;;;;;9.65;7.85;;;;;;;;;;5015569;28;20205;-87
2022/11/30 10:09:14;;;;;;;9.43;7.00;;;;;;;;;;5015318;28;20360;-87
2022/11/30 10:11:50;;;;;;;8.43;7.15;;;;;;;;;;5015641;28;20297;-87
2022/11/30 10:14:40;;;;;;;11.02;8.55;;;;;;;;;;5015821;28;20282;-86
2022/11/30 10:17:18;;;;;;;10.70;8.05;;;;;;;;;;5016510;28;20221;-86
2022/11/30 10:20:06;;;;;;;7.70;6.20;;;;;;;;;;5028588;28;20294;-87
2022/11/30 10:22:44;;;;;;;8.48;6.78;;;;;;;;;;5035595;28;20748;-88
2022/11/30 10:25:19;;;;;;;8.48;6.35;;;;;;;;;;5035708;28;20206;-87
2022/11/30 10:27:52;;;;;;;7.82;6.78;;;;;;;;;;5035243;28;20312;-86
2022/11/30 10:30:22;;;;;;;8.02;6.78;;;;;;;;;;5034842;28;20674;-87
2022/11/30 10:32:54;;;;;;;7.95;6.88;;;;;;;;;;5034770;28;20200;-87
2022/11/30 10:35:33;;;;;;;7.60;6.20;;;;;;;;;;5035306;28;20186;-86
2022/11/30 10:38:05;;;;;;;9.07;7.32;;;;;;;;;;5015994;28;20637;-85
2022/11/30 10:40:38;;;;;;;7.72;5.85;;;;;;;;;;5016523;28;20222;-86
2022/11/30 10:43:13;;;;;;;10.43;6.85;;;;;;;;;;5015819;28;20218;-87
2022/11/30 10:45:47;;;;;;;7.38;5.80;;;;;;;;;;5015752;28;20213;-85
2022/11/30 10:48:19;;;;;;;7.97;6.55;;;;;;;;;;5015906;28;20227;-86
2022/11/30 10:50:48;;;;;;;7.18;5.65;;;;;;;;;;5016001;28;20278;-86
2022/11/30 10:53:16;;;;;;;6.03;4.80;;;;;;;;;;5015165;28;20231;-84
2022/11/30 10:55:47;;;;;;;5.60;4.53;;;;;;;;;;5014766;28;20720;-84
2022/11/30 10:58:23;;;;;;;5.82;5.18;;;;;;;;;;5015140;28;20309;-85
2022/11/30 11:00:59;;;;;;;7.03;5.55;;;;;;;;;;5014467;28;20273;-84
2022/11/30 11:03:27;;;;;;;6.65;5.47;;;;;;;;;;5015405;28;20214;-86
2022/11/30 11:06:16;;;;;;;6.40;5.07;;;;;;;;;;5019159;28;20580;-84
2022/11/30 11:08:45;;;;;;;8.13;5.68;;;;;;;;;;5034223;28;20222;-84
2022/11/30 11:11:35;;;;;;;7.43;5.68;;;;;;;;;;5034608;28;20206;-85
2022/11/30 11:14:17;;;;;;;7.50;5.22;;;;;;;;;;5034713;28;20210;-84
2022/11/30 11:16:57;;;;;;;6.18;5.18;;;;;;;;;;5035038;28;20191;-83
2022/11/30 11:19:33;;;;;;;7.80;6.60;;;;;;;;;;5034197;28;20285;-84
2022/11/30 11:22:05;;;;;;;7.75;6.88;;;;;;;;;;5033727;28;20273;-83
2022/11/30 11:24:33;;;;;;;8.85;6.53;;;;;;;;;;5034069;28;20297;-85
2022/11/30 11:27:00;;;;;;;7.53;6.60;;;;;;;;;;5034407;28;20298;-84
2022/11/30 11:29:32;;;;;;;9.00;6.18;;;;;;;;;;5034213;28;20307;-85
2022/11/30 11:32:26;;;;;;;8.52;7.35;;;;;;;;;;5034878;28;20208;-85
2022/11/30 11:34:55;;;;;;;8.88;6.43;;;;;;;;;;4999137;28;20210;-83
2022/11/30 11:37:27;;;;;;;7.25;6.53;;;;;;;;;;5033619;28;20222;-83
2022/11/30 11:40:02;;;;;;;9.07;7.10;;;;;;;;;;5034558;28;20187;-84
2022/11/30 11:42:34;;;;;;;10.07;6.82;;;;;;;;;;5033919;28;20214;-84
2022/11/30 11:45:03;;;;;;;7.40;6.13;;;;;;;;;;5033958;28;20296;-86
2022/11/30 11:47:39;;;;;;;9.13;6.40;;;;;;;;;;5033700;28;20309;-84
2022/11/30 11:50:24;;;;;;;7.82;6.20;;;;;;;;;;5035468;28;20186;-84
2022/11/30 11:53:21;;;;;;;10.50;7.68;;;;;;;;;;5037880;28;20182;-85
2022/11/30 11:55:51;;;;;;;8.02;6.95;;;;;;;;;;5037766;28;20191;-83
2022/11/30 11:58:27;;;;;;;9.15;7.60;;;;;;;;;;5037214;28;20254;-84
2022/11/30 12:00:56;;;;;;;7.78;5.90;;;;;;;;;;5037555;28;20272;-85
2022/11/30 12:03:34;;;;;;;10.35;7.30;;;;;;;;;;5037508;28;20308;-85
2022/11/30 12:06:04;;;;;;;8.75;6.88;;;;;;;;;;5037278;28;20188;-83
2022/11/30 12:08:38;;;;;;;11.15;7.03;;;;;;;;;;5037756;28;20310;-84
2022/11/30 12:11:12;;;;;;;8.25;5.85;;;;;;;;;;5037784;28;20182;-84
2022/11/30 12:13:42;;;;;;;10.27;6.93;;;;;;;;;;5037315;28;20269;-85
2022/11/30 12:16:24;;;;;;;10.43;7.05;;;;;;;;;;5037867;28;20209;-84
2022/11/30 12:18:58;;;;;;;7.88;6.30;;;;;;;;;;5036442;28;20308;-85
2022/11/30 12:21:36;;;;;;;9.65;6.60;;;;;;;;;;5037001;28;20274;-83
2022/11/30 12:24:34;;;;;;;9.13;7.20;;;;;;;;;;5037401;28;20293;-83
2022/11/30 12:27:11;;;;;;;8.52;7.05;;;;;;;;;;5037366;28;20720;-85
2022/11/30 12:29:52;;;;;;;9.57;6.90;;;;;;;;;;5037109;28;20320;-85
2022/11/30 12:32:29;;;;;;;7.70;6.05;;;;;;;;;;5036978;28;20248;-83
2022/11/30 12:35:11;;;;;;;7.35;6.60;;;;;;;;;;5036302;28;20213;-86
2022/11/30 12:37:50;;;;;;;10.65;8.52;;;;;;;;;;5036978;28;20308;-85
2022/11/30 12:40:31;;;;;;;8.63;6.97;;;;;;;;;;5037338;28;20191;-87
2022/11/30 12:43:09;;;;;;;9.35;6.60;;;;;;;;;;5036382;28;20232;-83
2022/11/30 12:45:39;;;;;;;8.13;6.25;;;;;;;;;;5037462;28;20265;-83
2022/11/30 12:48:19;;;;;;;10.48;7.13;;;;;;;;;;5036422;28;20233;-84
2022/11/30 12:50:57;;;;;;;9.88;7.55;;;;;;;;;;5036623;28;20277;-84
2022/11/30 12:53:30;;;;;;;8.85;7.10;;;;;;;;;;5036294;28;20277;-84
2022/11/30 12:56:12;;;;;;;11.07;8.25;;;;;;;;;;5036593;28;20205;-83
2022/11/30 12:58:47;;;;;;;8.00;6.22;;;;;;;;;;5037156;28;20580;-85
2022/11/30 13:01:41;;;;;;;8.57;6.32;;;;;;;;;;5036163;28;20208;-85
2022/11/30 13:04:14;;;;;;;7.75;6.18;;;;;;;;;;5035940;28;20347;-83
2022/11/30 13:06:44;;;;;;;10.25;6.93;;;;;;;;;;5036271;28;20247;-84
2022/11/30 13:09:17;;;;;;;8.50;6.22;;;;;;;;;;5036007;28;20219;-85
2022/11/30 13:11:49;;;;;;;8.80;6.65;;;;;;;;;;5036354;28;20191;-84
2022/11/30 13:14:22;;;;;;;9.20;6.88;;;;;;;;;;5035642;28;20273;-84
2022/11/30 13:16:59;;;;;;;10.88;7.78;;;;;;;;;;5036225;28;20189;-85
2022/11/30 13:19:50;;;;;;;9.98;7.97;;;;;;;;;;5036151;28;20696;-82
2022/11/30 13:22:24;;;;;;;8.63;6.57;;;;;;;;;;5035887;28;20242;-83
2022/11/30 13:25:00;;;;;;;8.05;6.95;;;;;;;;;;5035930;28;20207;-84
2022/11/30 13:27:32;;;;;;;9.85;6.95;;;;;;;;;;5036189;28;20217;-85
2022/11/30 13:30:19;;;;;;;8.15;7.00;;;;;;;;;;5035828;28;20666;-83
2022/11/30 13:32:46;;;;;;;8.77;6.95;;;;;;;;;;5035763;28;20213;-85
2022/11/30 13:35:53;;;;;;;9.10;7.60;;;;;;;;;;5035471;28;20684;-85
2022/11/30 13:38:22;;;;;;;8.93;6.60;;;;;;;;;;4974344;28;20224;-84
2022/11/30 13:40:57;;;;;;;9.02;6.65;;;;;;;;;;5025353;28;20594;-84
2022/11/30 13:43:29;;;;;;;10.77;7.88;;;;;;;;;;5035699;28;20193;-86
2022/11/30 13:46:13;;;;;;;11.70;8.77;;;;;;;;;;5035785;28;20649;-86
2022/11/30 13:48:42;;;;;;;9.63;7.93;;;;;;;;;;5035238;28;20309;-84
2022/11/30 13:51:10;;;;;;;10.25;8.27;;;;;;;;;;5035585;28;20234;-84
2022/11/30 13:53:40;;;;;;;12.25;8.90;;;;;;;;;;5035490;28;20290;-85
2022/11/30 13:56:41;;;;;;;7.45;6.40;;;;;;;;;;5035290;28;20198;-85
2022/11/30 13:59:40;;;;;;;11.13;8.40;;;;;;;;;;5035004;28;20649;-85
2022/11/30 14:03:14;;;;;;;10.90;7.72;;;;;;;;;;4971083;28;20203;-85
2022/11/30 14:05:43;;;;;;;9.63;7.78;;;;;;;;;;4954488;29;20725;-84
2022/11/30 14:08:17;;;;;;;12.05;8.43;;;;;;;;;;4954228;28;20232;-85
2022/11/30 14:10:46;;;;;;;10.00;7.95;;;;;;;;;;4991521;28;20198;-84
2022/11/30 14:13:30;;;;;;;10.85;8.38;;;;;;;;;;5015252;28;20290;-85
2022/11/30 14:16:00;;;;;;;10.45;7.80;;;;;;;;;;5015326;28;20641;-84
2022/11/30 14:18:48;;;;;;;11.23;8.38;;;;;;;;;;5018060;28;20763;-85
2022/11/30 14:21:25;;;;;;;11.90;7.22;;;;;;;;;;5030023;28;20674;-85
2022/11/30 14:23:57;;;;;;;10.43;8.02;;;;;;;;;;5034791;28;20186;-85
2022/11/30 14:26:30;;;;;;;9.05;6.85;;;;;;;;;;5035201;28;20216;-86
2022/11/30 14:29:12;;;;;;;9.75;7.32;;;;;;;;;;5035020;28;20230;-84
2022/11/30 14:31:52;;;;;;;9.90;6.35;;;;;;;;;;5034610;28;20202;-85
2022/11/30 14:34:24;;;;;;;9.05;6.38;;;;;;;;;;5034818;28;20648;-84
2022/11/30 14:36:55;;;;;;;8.73;7.10;;;;;;;;;;5034676;28;20359;-83
2022/11/30 14:39:26;;;;;;;10.15;6.88;;;;;;;;;;5034889;28;20226;-84
2022/11/30 14:41:54;;;;;;;9.88;7.72;;;;;;;;;;5034996;28;20263;-84
2022/11/30 14:44:21;;;;;;;8.55;6.85;;;;;;;;;;5034509;28;20297;-85
2022/11/30 14:46:50;;;;;;;8.63;6.95;;;;;;;;;;5034667;28;20206;-85
2022/11/30 14:49:20;;;;;;;8.82;6.90;;;;;;;;;;5033865;28;20309;-83
2022/11/30 14:51:50;;;;;;;7.18;5.60;;;;;;;;;;5035141;28;20285;-83
2022/11/30 14:54:34;;;;;;;7.95;5.63;;;;;;;;;;5034739;28;20289;-84
2022/11/30 14:57:07;;;;;;;8.10;7.07;;;;;;;;;;5034339;28;20277;-84
2022/11/30 14:59:48;;;;;;;7.57;6.32;;;;;;;;;;5034725;28;20277;-85
2022/11/30 15:02:24;;;;;;;6.65;5.95;;;;;;;;;;5035316;28;20217;-85
2022/11/30 15:04:53;;;;;;;6.95;5.13;;;;;;;;;;5033521;28;20298;-83
2022/11/30 15:07:22;;;;;;;6.93;5.57;;;;;;;;;;5033512;28;20249;-84
2022/11/30 15:09:54;;;;;;;5.60;4.32;;;;;;;;;;5033535;28;20206;-83
2022/11/30 15:12:23;;;;;;;6.55;4.70;;;;;;;;;;5033641;28;20198;-84
2022/11/30 15:15:18;;;;;;;5.68;4.60;;;;;;;;;;5033641;28;20349;-84